createdAt,value
2019-05-29T00:00:29.933Z,7.10
2019-05-29T00:02:59.370Z,7.00
2019-05-29T00:05:28.838Z,6.90
2019-05-29T00:07:58.265Z,6.90
2019-05-29T00:10:27.722Z,6.80
2019-05-29T00:12:57.237Z,6.70
2019-05-29T00:15:26.705Z,6.70
2019-05-29T00:17:56.146Z,6.60
2019-05-29T00:20:25.674Z,6.60
2019-05-29T00:22:55.114Z,6.50
2019-05-29T00:25:24.574Z,6.40
2019-05-29T00:27:54.280Z,6.30
2019-05-29T00:30:24.706Z,6.20
2019-05-29T00:32:54.147Z,6.10
2019-05-29T00:35:23.593Z,6.10
2019-05-29T00:37:53.033Z,6.10
2019-05-29T00:40:22.569Z,6.00
2019-05-29T00:42:52.010Z,6.00
2019-05-29T00:45:21.536Z,5.90
2019-05-29T00:47:50.974Z,5.80
2019-05-29T00:50:20.704Z,5.70
2019-05-29T00:52:50.136Z,5.60
2019-05-29T00:55:19.596Z,5.40
2019-05-29T00:57:49.707Z,5.30
2019-05-29T01:00:19.525Z,5.20
2019-05-29T01:02:48.978Z,5.10
2019-05-29T01:05:18.430Z,5.00
2019-05-29T01:07:47.948Z,5.00
2019-05-29T01:10:18.904Z,5.00
2019-05-29T01:12:48.475Z,4.90
2019-05-29T01:15:19.532Z,4.90
2019-05-29T01:17:49.120Z,4.90
2019-05-29T01:20:19.915Z,4.90
2019-05-29T01:22:49.457Z,5.00
2019-05-29T01:25:18.914Z,4.90
2019-05-29T01:27:48.354Z,4.90
2019-05-29T01:30:19.230Z,4.90
2019-05-29T01:32:49.968Z,4.80
2019-05-29T01:35:20.040Z,4.80
2019-05-29T01:37:50.705Z,4.70
2019-05-29T01:40:25.173Z,4.80
2019-05-29T01:42:51.301Z,4.70
2019-05-29T01:45:21.504Z,4.60
2019-05-29T01:47:51.005Z,4.50
2019-05-29T01:50:21.609Z,4.50
2019-05-29T01:52:51.213Z,4.40
2019-05-29T01:55:21.678Z,4.40
2019-05-29T01:57:51.110Z,4.30
2019-05-29T02:00:21.999Z,4.30
2019-05-29T02:02:51.446Z,4.20
2019-05-29T02:05:21.922Z,4.40
2019-05-29T02:07:51.497Z,4.50
2019-05-29T02:10:22.146Z,4.50
2019-05-29T02:12:51.596Z,4.40
2019-05-29T02:15:30.135Z,4.30
2019-05-29T02:17:53.732Z,4.20
2019-05-29T02:20:23.433Z,4.20
2019-05-29T02:22:52.878Z,4.10
2019-05-29T02:25:22.877Z,4.10
2019-05-29T02:27:52.316Z,4.10
2019-05-29T02:30:23.644Z,4.00
2019-05-29T02:32:53.379Z,3.90
2019-05-29T02:35:24.638Z,3.80
2019-05-29T02:37:53.900Z,3.80
2019-05-29T02:40:25.615Z,3.80
2019-05-29T02:42:54.558Z,3.70
2019-05-29T02:45:37.358Z,3.70
2019-05-29T02:47:55.168Z,3.70
2019-05-29T02:50:26.334Z,3.90
2019-05-29T02:52:55.779Z,3.90
2019-05-29T02:55:26.762Z,4.00
2019-05-29T02:57:56.569Z,4.00
2019-05-29T03:00:56.233Z,3.90
2019-05-29T03:03:27.303Z,3.90
2019-05-29T03:05:58.298Z,3.90
2019-05-29T03:08:29.565Z,3.90
2019-05-29T03:10:58.804Z,3.90
2019-05-29T03:13:29.812Z,4.00
2019-05-29T03:16:10.740Z,3.90
2019-05-29T03:18:32.385Z,3.80
2019-05-29T03:21:01.631Z,3.70
2019-05-29T03:23:33.357Z,3.70
2019-05-29T03:26:03.116Z,3.70
2019-05-29T03:28:34.812Z,3.70
2019-05-29T03:31:03.629Z,3.80
2019-05-29T03:33:40.998Z,3.70
2019-05-29T03:36:04.326Z,3.60
2019-05-29T03:38:34.894Z,3.60
2019-05-29T03:41:04.763Z,3.50
2019-05-29T03:43:36.020Z,3.50
2019-05-29T03:46:05.279Z,3.60
2019-05-29T03:48:34.713Z,3.70
2019-05-29T03:51:04.285Z,3.70
2019-05-29T03:53:36.186Z,3.80
2019-05-29T03:56:05.279Z,3.80
2019-05-29T03:58:35.322Z,3.80
2019-05-29T04:01:05.481Z,3.80
2019-05-29T04:03:35.617Z,3.70
2019-05-29T04:06:06.310Z,3.80
2019-05-29T04:08:38.003Z,3.90
2019-05-29T04:11:07.372Z,3.90
2019-05-29T04:13:38.836Z,4.00
2019-05-29T04:16:10.126Z,4.00
2019-05-29T04:18:41.405Z,4.00
2019-05-29T04:21:11.764Z,4.10
2019-05-29T04:23:42.952Z,4.20
2019-05-29T04:26:15.109Z,4.30
2019-05-29T04:28:44.574Z,4.40
2019-05-29T04:31:14.058Z,4.50
2019-05-29T04:33:43.481Z,4.50
2019-05-29T04:36:12.924Z,4.70
2019-05-29T04:38:42.386Z,4.80
2019-05-29T04:41:11.818Z,4.80
2019-05-29T04:43:41.281Z,4.80
2019-05-29T04:46:10.733Z,4.80
2019-05-29T04:48:40.572Z,4.90
2019-05-29T04:51:10.138Z,5.00
2019-05-29T04:53:39.977Z,5.10
2019-05-29T04:56:09.549Z,5.30
2019-05-29T04:58:39.124Z,5.40
2019-05-29T05:01:08.660Z,5.50
2019-05-29T05:03:39.043Z,5.60
2019-05-29T05:06:08.858Z,5.80
2019-05-29T05:08:39.528Z,6.00
2019-05-29T05:11:10.401Z,6.10
2019-05-29T05:13:39.933Z,6.20
2019-05-29T05:16:09.369Z,6.40
2019-05-29T05:18:40.045Z,6.50
2019-05-29T05:21:09.771Z,6.70
2019-05-29T05:23:40.309Z,6.80
2019-05-29T05:26:10.141Z,6.80
2019-05-29T05:28:44.028Z,6.90
2019-05-29T05:31:10.666Z,7.00
2019-05-29T05:33:41.033Z,7.00
2019-05-29T05:36:10.562Z,7.10
2019-05-29T05:38:41.036Z,7.30
2019-05-29T05:41:10.707Z,7.40
2019-05-29T05:43:41.359Z,7.40
2019-05-29T05:46:11.089Z,7.40
2019-05-29T05:48:41.470Z,7.50
2019-05-29T05:51:11.238Z,7.70
2019-05-29T05:53:41.797Z,7.80
2019-05-29T05:56:11.508Z,7.90
2019-05-29T05:58:42.272Z,8.00
2019-05-29T06:01:11.998Z,8.10
2019-05-29T06:03:42.419Z,8.10
2019-05-29T06:06:12.344Z,8.20
2019-05-29T06:08:42.485Z,8.20
2019-05-29T06:11:12.277Z,8.30
2019-05-29T06:13:42.928Z,8.30
2019-05-29T06:16:12.459Z,8.30
2019-05-29T06:18:43.048Z,8.40
2019-05-29T06:21:12.713Z,8.60
2019-05-29T06:23:43.572Z,8.70
2019-05-29T06:26:13.448Z,8.70
2019-05-29T06:28:44.171Z,8.80
2019-05-29T06:31:13.618Z,9.00
2019-05-29T06:33:43.869Z,9.00
2019-05-29T06:36:13.627Z,9.00
2019-05-29T06:38:44.408Z,9.00
2019-05-29T06:41:14.991Z,9.10
2019-05-29T06:43:44.734Z,9.10
2019-05-29T06:46:14.362Z,9.20
2019-05-29T06:48:58.976Z,9.30
2019-05-29T06:51:15.861Z,9.40
2019-05-29T06:53:45.313Z,9.50
2019-05-29T06:56:15.687Z,9.60
2019-05-29T06:58:45.862Z,9.70
2019-05-29T07:01:15.372Z,9.70
2019-05-29T07:03:44.831Z,9.80
2019-05-29T07:06:14.278Z,9.90
2019-05-29T07:08:47.637Z,9.90
2019-05-29T07:11:14.929Z,9.90
2019-05-29T07:13:47.645Z,9.90
2019-05-29T07:16:16.597Z,10.00
2019-05-29T07:19:22.994Z,10.20
2019-05-29T07:21:17.208Z,10.40
2019-05-29T07:23:48.517Z,10.60
2019-05-29T07:26:17.812Z,10.50
2019-05-29T07:29:07.019Z,10.60
2019-05-29T07:31:19.497Z,10.70
2019-05-29T07:33:49.034Z,10.80
2019-05-29T07:36:18.473Z,10.80
2019-05-29T07:39:01.856Z,10.90
2019-05-29T07:41:19.010Z,10.90
2019-05-29T07:43:48.475Z,11.00
2019-05-29T07:46:17.925Z,10.90
2019-05-29T07:48:48.567Z,11.00
2019-05-29T07:51:18.518Z,11.10
2019-05-29T07:53:49.024Z,11.20
2019-05-29T07:56:22.934Z,11.10
2019-05-29T07:59:01.506Z,11.10
2019-05-29T08:01:21.694Z,11.20
2019-05-29T08:03:51.134Z,11.40
2019-05-29T08:06:20.601Z,11.60
2019-05-29T08:08:50.050Z,11.80
2019-05-29T08:11:19.505Z,11.70
2019-05-29T08:13:50.022Z,11.80
2019-05-29T08:16:20.556Z,11.60
2019-05-29T08:18:52.937Z,11.50
2019-05-29T08:21:21.149Z,11.60
2019-05-29T08:23:50.928Z,12.00
2019-05-29T08:26:20.362Z,12.20
2019-05-29T08:28:50.962Z,12.20
2019-05-29T08:31:21.846Z,12.40
2019-05-29T08:33:51.504Z,12.90
2019-05-29T08:36:21.927Z,13.50
2019-05-29T08:38:51.910Z,14.00
2019-05-29T08:41:21.432Z,13.90
2019-05-29T08:43:50.948Z,14.10
2019-05-29T08:46:20.451Z,14.50
2019-05-29T08:48:50.033Z,14.50
2019-05-29T08:51:19.665Z,14.10
2019-05-29T08:53:51.854Z,14.40
2019-05-29T08:56:20.177Z,14.40
2019-05-29T08:58:50.689Z,14.50
2019-05-29T09:01:21.363Z,14.40
2019-05-29T09:03:51.331Z,15.20
2019-05-29T09:06:21.041Z,15.80
2019-05-29T09:08:54.024Z,16.30
2019-05-29T09:11:21.929Z,16.80
2019-05-29T09:13:51.375Z,17.60
2019-05-29T09:16:21.980Z,17.70
2019-05-29T09:18:51.474Z,16.40
2019-05-29T09:21:20.934Z,15.40
2019-05-29T09:23:50.376Z,15.50
2019-05-29T09:26:23.020Z,15.10
2019-05-29T09:28:51.921Z,14.60
2019-05-29T09:31:22.168Z,15.20
2019-05-29T09:33:52.785Z,15.80
2019-05-29T09:36:22.746Z,16.60
2019-05-29T09:38:52.341Z,17.00
2019-05-29T09:41:22.311Z,17.60
2019-05-29T09:43:59.315Z,17.60
2019-05-29T09:46:24.070Z,17.60
2019-05-29T09:48:53.517Z,17.90
2019-05-29T09:51:22.994Z,18.30
2019-05-29T09:53:53.920Z,18.30
2019-05-29T09:56:23.594Z,18.40
2019-05-29T09:58:55.230Z,17.30
2019-05-29T10:01:25.315Z,17.30
2019-05-29T10:03:57.062Z,17.30
2019-05-29T10:06:26.437Z,16.90
2019-05-29T10:08:56.296Z,16.50
2019-05-29T10:11:26.338Z,16.00
2019-05-29T10:13:56.863Z,16.10
2019-05-29T10:16:26.969Z,16.70
2019-05-29T10:18:58.475Z,17.90
2019-05-29T10:21:39.433Z,18.00
2019-05-29T10:23:59.582Z,18.40
2019-05-29T10:26:29.146Z,19.20
2019-05-29T10:29:08.032Z,19.30
2019-05-29T10:31:29.672Z,20.10
2019-05-29T10:33:59.109Z,21.00
2019-05-29T10:36:28.599Z,19.90
2019-05-29T10:38:58.030Z,19.60
2019-05-29T10:41:27.496Z,19.00
2019-05-29T10:43:56.934Z,17.10
2019-05-29T10:46:27.471Z,15.90
2019-05-29T10:48:56.913Z,15.30
2019-05-29T10:51:26.382Z,14.90
2019-05-29T10:53:58.371Z,14.70
2019-05-29T10:56:26.923Z,14.80
2019-05-29T10:58:59.808Z,15.10
2019-05-29T11:01:27.446Z,15.40
2019-05-29T11:03:56.889Z,16.50
2019-05-29T11:06:26.425Z,18.20
2019-05-29T11:08:56.296Z,18.90
2019-05-29T11:11:26.918Z,18.90
2019-05-29T11:13:57.169Z,19.20
2019-05-29T11:16:26.737Z,19.20
2019-05-29T11:18:57.652Z,19.30
2019-05-29T11:21:27.215Z,18.20
2019-05-29T11:23:58.028Z,17.70
2019-05-29T11:26:27.612Z,18.10
2019-05-29T11:28:57.057Z,19.20
2019-05-29T11:31:26.519Z,19.30
2019-05-29T11:33:57.185Z,19.00
2019-05-29T11:36:26.732Z,20.00
2019-05-29T11:38:56.869Z,21.00
2019-05-29T11:41:27.310Z,22.10
2019-05-29T11:43:56.964Z,23.10
2019-05-29T11:46:26.415Z,23.30
2019-05-29T11:48:57.210Z,23.20
2019-05-29T11:51:26.854Z,22.00
2019-05-29T11:53:57.417Z,21.80
2019-05-29T11:56:26.946Z,22.10
2019-05-29T11:58:56.928Z,21.20
2019-05-29T12:01:26.668Z,21.70
2019-05-29T12:04:21.895Z,22.30
2019-05-29T12:06:27.193Z,21.60
2019-05-29T12:08:57.973Z,21.10
2019-05-29T12:11:27.502Z,21.80
2019-05-29T12:13:58.043Z,21.30
2019-05-29T12:16:27.629Z,21.50
2019-05-29T12:18:57.798Z,21.10
2019-05-29T12:21:27.331Z,21.50
2019-05-29T12:23:58.255Z,22.50
2019-05-29T12:26:28.646Z,22.20
2019-05-29T12:29:04.522Z,21.30
2019-05-29T12:31:29.196Z,21.20
2019-05-29T12:34:06.662Z,19.70
2019-05-29T12:36:30.546Z,19.20
2019-05-29T12:39:02.004Z,19.10
2019-05-29T12:41:32.441Z,20.30
2019-05-29T12:44:01.914Z,20.00
2019-05-29T12:46:31.363Z,20.60
2019-05-29T12:49:01.705Z,21.20
2019-05-29T12:51:31.305Z,21.80
2019-05-29T12:54:02.279Z,21.80
2019-05-29T12:56:31.969Z,22.10
2019-05-29T12:59:02.694Z,21.50
2019-05-29T13:01:32.291Z,20.40
2019-05-29T13:04:02.395Z,21.10
2019-05-29T13:06:31.994Z,21.60
2019-05-29T13:09:02.552Z,22.00
2019-05-29T13:11:32.581Z,22.50
2019-05-29T13:14:02.691Z,22.30
2019-05-29T13:16:32.294Z,22.80
2019-05-29T13:19:03.294Z,22.90
2019-05-29T13:21:33.017Z,23.20
2019-05-29T13:24:06.347Z,23.40
2019-05-29T13:26:34.674Z,22.90
2019-05-29T13:29:04.358Z,22.80
2019-05-29T13:31:34.161Z,23.10
2019-05-29T13:34:04.429Z,23.40
2019-05-29T13:36:33.953Z,24.00
2019-05-29T13:39:04.937Z,24.20
2019-05-29T13:41:34.872Z,24.70
2019-05-29T13:44:06.809Z,23.90
2019-05-29T13:46:36.427Z,22.90
2019-05-29T13:49:07.216Z,22.10
2019-05-29T13:51:36.853Z,20.80
2019-05-29T13:54:13.046Z,22.30
2019-05-29T13:56:37.397Z,23.10
2019-05-29T13:59:08.392Z,23.50
2019-05-29T14:01:37.990Z,22.70
2019-05-29T14:04:08.660Z,23.00
2019-05-29T14:06:38.310Z,23.00
2019-05-29T14:09:09.881Z,23.20
2019-05-29T14:11:39.869Z,22.90
2019-05-29T14:14:11.399Z,22.10
2019-05-29T14:16:40.419Z,22.20
2019-05-29T14:19:09.885Z,22.70
2019-05-29T14:21:39.326Z,23.40
2019-05-29T14:24:26.260Z,22.60
2019-05-29T14:26:39.917Z,21.90
2019-05-29T14:29:10.056Z,20.70
2019-05-29T14:31:39.683Z,20.40
2019-05-29T14:34:10.125Z,20.20
2019-05-29T14:36:42.431Z,20.00
2019-05-29T14:39:12.077Z,20.50
2019-05-29T14:41:41.954Z,21.60
2019-05-29T14:44:12.048Z,23.30
2019-05-29T14:46:41.582Z,24.30
2019-05-29T14:49:20.733Z,24.90
2019-05-29T14:51:50.179Z,25.30
2019-05-29T14:54:19.642Z,24.10
2019-05-29T14:56:49.110Z,25.20
2019-05-29T14:59:18.710Z,25.60
2019-05-29T15:01:51.195Z,25.20
2019-05-29T15:04:19.334Z,25.00
2019-05-29T15:06:48.777Z,24.90
2019-05-29T15:09:18.238Z,24.90
2019-05-29T15:11:47.750Z,25.20
2019-05-29T15:14:17.213Z,25.50
2019-05-29T15:16:46.663Z,24.60
2019-05-29T15:19:17.097Z,24.90
2019-05-29T15:21:46.541Z,25.20
2019-05-29T15:24:16.014Z,24.40
2019-05-29T15:26:45.461Z,23.50
2019-05-29T15:29:16.764Z,23.90
2019-05-29T15:31:45.992Z,23.70
2019-05-29T15:34:16.516Z,22.80
2019-05-29T15:36:46.101Z,22.60
2019-05-29T15:39:16.762Z,22.70
2019-05-29T15:41:46.418Z,23.80
2019-05-29T15:44:17.101Z,24.30
2019-05-29T15:46:46.816Z,24.30
2019-05-29T15:49:17.298Z,24.40
2019-05-29T15:51:47.442Z,24.10
2019-05-29T15:54:17.638Z,24.50
2019-05-29T15:56:47.373Z,25.10
2019-05-29T15:59:18.927Z,23.60
2019-05-29T16:01:47.910Z,22.90
2019-05-29T16:04:17.999Z,22.70
2019-05-29T16:06:47.645Z,23.40
2019-05-29T16:09:18.689Z,24.20
2019-05-29T16:11:48.322Z,23.90
2019-05-29T16:14:19.020Z,24.40
2019-05-29T16:16:48.731Z,25.10
2019-05-29T16:19:19.141Z,24.60
2019-05-29T16:21:48.682Z,23.80
2019-05-29T16:24:19.028Z,24.30
2019-05-29T16:26:48.589Z,24.70
2019-05-29T16:29:19.649Z,25.40
2019-05-29T16:31:49.301Z,24.70
2019-05-29T16:34:19.994Z,24.10
2019-05-29T16:36:49.842Z,24.60
2019-05-29T16:39:20.926Z,24.00
2019-05-29T16:41:50.365Z,24.00
2019-05-29T16:44:24.248Z,25.00
2019-05-29T16:46:50.919Z,24.40
2019-05-29T16:49:21.224Z,24.90
2019-05-29T16:51:50.825Z,25.40
2019-05-29T16:54:21.060Z,25.80
2019-05-29T16:56:50.663Z,25.30
2019-05-29T16:59:21.286Z,24.80
2019-05-29T17:01:50.867Z,25.00
2019-05-29T17:04:20.312Z,24.50
2019-05-29T17:06:49.779Z,24.90
2019-05-29T17:09:20.258Z,25.60
2019-05-29T17:11:49.784Z,25.70
2019-05-29T17:14:20.817Z,25.40
2019-05-29T17:16:51.618Z,24.50
2019-05-29T17:19:21.065Z,24.40
2019-05-29T17:21:50.531Z,24.90
2019-05-29T17:24:20.938Z,24.70
2019-05-29T17:26:50.421Z,25.00
2019-05-29T17:29:20.807Z,24.70
2019-05-29T17:31:51.405Z,24.70
2019-05-29T17:34:21.087Z,25.10
2019-05-29T17:36:51.560Z,24.50
2019-05-29T17:39:21.461Z,24.20
2019-05-29T17:41:51.045Z,24.30
2019-05-29T17:44:21.409Z,24.70
2019-05-29T17:46:50.881Z,24.60
2019-05-29T17:49:24.901Z,24.10
2019-05-29T17:51:51.420Z,24.50
2019-05-29T17:54:22.031Z,23.90
2019-05-29T17:56:52.609Z,23.50
2019-05-29T17:59:22.649Z,23.30
2019-05-29T18:01:52.126Z,23.30
2019-05-29T18:04:22.612Z,22.10
2019-05-29T18:06:52.122Z,22.00
2019-05-29T18:09:24.718Z,22.00
2019-05-29T18:11:52.805Z,21.30
2019-05-29T18:14:23.341Z,20.70
2019-05-29T18:16:52.849Z,20.80
2019-05-29T18:19:23.683Z,21.30
2019-05-29T18:21:53.265Z,21.00
2019-05-29T18:24:23.773Z,20.60
2019-05-29T18:26:53.376Z,20.30
2019-05-29T18:29:23.155Z,20.50
2019-05-29T18:31:53.789Z,20.40
2019-05-29T18:34:23.233Z,20.50
2019-05-29T18:36:52.698Z,20.50
2019-05-29T18:39:22.215Z,20.30
2019-05-29T18:41:51.707Z,19.90
2019-05-29T18:44:21.156Z,19.50
2019-05-29T18:46:50.618Z,19.30
2019-05-29T18:49:20.358Z,19.00
2019-05-29T18:51:49.931Z,18.60
2019-05-29T18:54:19.369Z,18.30
2019-05-29T18:57:13.095Z,18.00
2019-05-29T18:59:21.416Z,17.70
2019-05-29T19:01:50.993Z,17.60
2019-05-29T19:04:21.515Z,17.30
2019-05-29T19:06:50.997Z,17.40
2019-05-29T19:09:21.617Z,17.10
2019-05-29T19:11:51.214Z,16.60
2019-05-29T19:14:21.676Z,16.00
2019-05-29T19:16:51.229Z,15.50
2019-05-29T19:19:21.928Z,15.20
2019-05-29T19:21:51.557Z,14.90
2019-05-29T19:24:22.412Z,14.60
2019-05-29T19:26:51.969Z,14.30
2019-05-29T19:29:22.843Z,14.10
2019-05-29T19:31:52.479Z,13.60
2019-05-29T19:34:23.156Z,13.20
2019-05-29T19:36:52.781Z,12.90
2019-05-29T19:39:28.021Z,12.60
2019-05-29T19:41:57.584Z,12.40
2019-05-29T19:44:28.228Z,12.20
2019-05-29T19:46:57.736Z,12.10
2019-05-29T19:49:27.375Z,12.10
2019-05-29T19:51:56.846Z,12.00
2019-05-29T19:54:27.329Z,11.90
2019-05-29T19:56:56.954Z,11.90
2019-05-29T19:59:26.477Z,12.00
2019-05-29T20:01:55.935Z,12.10
2019-05-29T20:04:26.600Z,12.00
2019-05-29T20:06:56.101Z,12.10
2019-05-29T20:09:25.586Z,12.10
2019-05-29T20:11:55.005Z,12.20
2019-05-29T20:14:24.482Z,12.20
2019-05-29T20:16:53.914Z,12.30
2019-05-29T20:19:23.373Z,12.20
2019-05-29T20:21:52.813Z,11.90
2019-05-29T20:24:22.283Z,11.60
2019-05-29T20:26:51.723Z,11.60
2019-05-29T20:29:21.189Z,11.60
2019-05-29T20:31:50.669Z,11.60
2019-05-29T20:34:20.097Z,11.70
2019-05-29T20:36:49.538Z,11.70
2019-05-29T20:39:19.013Z,11.70
2019-05-29T20:41:48.473Z,11.80
2019-05-29T20:44:17.933Z,11.90
2019-05-29T20:46:47.378Z,12.00
2019-05-29T20:49:16.918Z,12.00
2019-05-29T20:51:46.361Z,12.00
2019-05-29T20:54:15.830Z,11.90
2019-05-29T20:56:45.436Z,11.90
2019-05-29T20:59:14.901Z,11.80
2019-05-29T21:01:47.427Z,11.80
2019-05-29T21:04:15.443Z,11.90
2019-05-29T21:06:44.899Z,11.90
2019-05-29T21:09:14.478Z,12.00
2019-05-29T21:11:44.350Z,12.00
2019-05-29T21:14:14.061Z,12.00
2019-05-29T21:16:44.019Z,12.10
2019-05-29T21:19:13.462Z,12.10
2019-05-29T21:21:42.908Z,12.10
2019-05-29T21:24:12.373Z,12.10
2019-05-29T21:26:43.129Z,12.10
2019-05-29T21:29:12.781Z,12.10
2019-05-29T21:31:42.227Z,12.20
2019-05-29T21:34:11.685Z,12.10
2019-05-29T21:36:42.170Z,12.10
2019-05-29T21:39:11.703Z,12.10
2019-05-29T21:41:41.157Z,12.10
2019-05-29T21:44:10.904Z,12.10
2019-05-29T21:46:40.921Z,12.10
2019-05-29T21:49:10.548Z,12.10
2019-05-29T21:51:39.990Z,12.10
2019-05-29T21:54:09.451Z,12.00
2019-05-29T21:56:39.487Z,12.10
2019-05-29T21:59:09.052Z,12.10
2019-05-29T22:01:39.804Z,12.10
2019-05-29T22:04:10.493Z,12.20
2019-05-29T22:06:40.494Z,12.20
2019-05-29T22:09:15.772Z,12.20
2019-05-29T22:11:45.217Z,12.20
2019-05-29T22:14:14.682Z,12.20
2019-05-29T22:16:44.190Z,12.20
2019-05-29T22:19:13.652Z,12.20
2019-05-29T22:21:43.095Z,12.30
2019-05-29T22:24:12.557Z,12.30
2019-05-29T22:26:42.005Z,12.20
2019-05-29T22:29:17.810Z,12.10
2019-05-29T22:31:42.529Z,12.20
2019-05-29T22:34:12.061Z,12.20
2019-05-29T22:36:41.509Z,12.20
2019-05-29T22:39:11.040Z,12.20
2019-05-29T22:41:40.491Z,12.20
2019-05-29T22:44:09.949Z,12.20
2019-05-29T22:46:39.484Z,12.20
2019-05-29T22:49:08.925Z,12.20
2019-05-29T22:51:38.388Z,12.20
2019-05-29T22:54:07.829Z,12.20
2019-05-29T22:56:37.312Z,12.20
2019-05-29T22:59:06.742Z,12.20
2019-05-29T23:01:36.200Z,12.20
2019-05-29T23:04:05.650Z,12.20
2019-05-29T23:06:35.110Z,12.30
2019-05-29T23:09:06.757Z,12.40
2019-05-29T23:11:36.217Z,12.40
2019-05-29T23:14:05.665Z,12.50
2019-05-29T23:16:36.198Z,12.60
2019-05-29T23:19:05.638Z,12.60
2019-05-29T23:21:35.105Z,12.60
2019-05-29T23:24:04.711Z,12.50
2019-05-29T23:26:34.185Z,12.50
2019-05-29T23:29:03.913Z,12.50
2019-05-29T23:31:33.470Z,12.50
2019-05-29T23:34:03.287Z,12.50
2019-05-29T23:36:32.870Z,12.40
2019-05-29T23:39:03.396Z,12.50
2019-05-29T23:41:32.890Z,12.60
2019-05-29T23:44:03.698Z,12.60
2019-05-29T23:46:33.264Z,12.60
2019-05-29T23:49:03.861Z,12.60
2019-05-29T23:51:33.469Z,12.60
2019-05-29T23:54:03.949Z,12.60
2019-05-29T23:56:34.540Z,12.60
2019-05-29T23:59:04.171Z,12.60
